Time;durP1;ratioP1;P1;durP2;ratioP2;P2;SDS_P1;SDS_P2;PMS_P1;PMS_P2;Temp;Humidity;BMP_temperature;BMP_pressure;BME280_temperature;BME280_humidity;BME280_pressure;Samples;Min_cycle;Max_cycle;Signal;HPM_P1;HPM_P2
2021/07/17 00:01:21;;;;;;;21.47;12.90;;;18.40;99.90;;;;;;5074213;28;20193;-81
2021/07/17 00:03:47;;;;;;;18.23;13.20;;;18.40;99.90;;;;;;5090175;28;20200;-81
2021/07/17 00:06:13;;;;;;;20.77;12.90;;;18.40;99.90;;;;;;5080555;28;20452;-83
2021/07/17 00:08:39;;;;;;;22.30;13.10;;;18.40;99.90;;;;;;5076731;28;20562;-83
2021/07/17 00:11:04;;;;;;;25.83;13.07;;;18.40;99.90;;;;;;5059674;28;20793;-81
2021/07/17 00:13:31;;;;;;;22.80;14.60;;;18.40;99.90;;;;;;5070366;28;20598;-82
2021/07/17 00:15:57;;;;;;;19.83;13.40;;;18.40;99.90;;;;;;5092253;28;20192;-83
2021/07/17 00:18:23;;;;;;;20.17;13.53;;;18.30;99.90;;;;;;5090851;28;20418;-81
2021/07/17 00:20:50;;;;;;;20.07;13.10;;;18.40;99.90;;;;;;5097227;28;20859;-82
2021/07/17 00:23:17;;;;;;;21.13;14.07;;;18.30;99.90;;;;;;5068510;28;20449;-83
2021/07/17 00:25:44;;;;;;;17.50;13.90;;;18.40;99.90;;;;;;5077032;28;20529;-82
2021/07/17 00:28:10;;;;;;;24.97;14.17;;;18.40;99.90;;;;;;5089920;28;20506;-81
2021/07/17 00:30:36;;;;;;;26.43;14.43;;;18.30;99.90;;;;;;5061583;28;20494;-82
2021/07/17 00:33:03;;;;;;;18.00;14.30;;;18.30;99.90;;;;;;5090345;28;20722;-81
2021/07/17 00:35:29;;;;;;;20.90;14.00;;;18.30;99.90;;;;;;5097281;28;20200;-82
2021/07/17 00:37:54;;;;;;;15.27;13.03;;;18.30;99.90;;;;;;5081327;28;20417;-80
2021/07/17 00:40:21;;;;;;;21.53;14.80;;;18.30;99.90;;;;;;5097618;28;20188;-83
2021/07/17 00:42:48;;;;;;;25.53;13.17;;;18.30;99.90;;;;;;5094282;28;20194;-81
2021/07/17 00:45:15;;;;;;;23.53;14.07;;;18.30;99.90;;;;;;5061507;28;20451;-83
2021/07/17 00:47:41;;;;;;;21.87;14.67;;;18.30;99.90;;;;;;5052948;28;20435;-83
2021/07/17 00:50:13;;;;;;;21.90;14.23;;;18.30;99.90;;;;;;5047002;28;20467;-82
2021/07/17 00:52:39;;;;;;;19.37;13.80;;;18.30;99.90;;;;;;5071972;28;20676;-82
2021/07/17 00:55:07;;;;;;;18.60;13.73;;;18.30;99.90;;;;;;5094406;28;20472;-81
2021/07/17 00:57:35;;;;;;;20.83;14.43;;;18.30;99.90;;;;;;5072649;28;20716;-81
2021/07/17 01:00:15;;;;;;;20.87;13.63;;;18.20;99.90;;;;;;5096782;28;20784;-83
2021/07/17 01:02:52;;;;;;;20.30;14.63;;;18.20;99.90;;;;;;5047251;28;20425;-82
2021/07/17 01:05:18;;;;;;;22.97;13.97;;;18.20;99.90;;;;;;5084342;28;20446;-81
2021/07/17 01:07:48;;;;;;;31.87;15.07;;;18.20;99.90;;;;;;5096766;28;20427;-81
2021/07/17 01:10:16;;;;;;;18.60;13.70;;;18.20;99.90;;;;;;5096566;28;20492;-83
2021/07/17 01:12:41;;;;;;;22.33;15.00;;;18.20;99.90;;;;;;5096127;28;21148;-82
2021/07/17 01:15:08;;;;;;;24.67;14.73;;;18.20;99.90;;;;;;5097946;28;20434;-82
2021/07/17 01:17:34;;;;;;;20.03;14.50;;;18.20;99.90;;;;;;5079526;28;20277;-81
2021/07/17 01:20:00;;;;;;;24.50;15.07;;;18.20;99.90;;;;;;5097656;28;20473;-80
2021/07/17 01:22:27;;;;;;;21.20;15.40;;;18.20;99.90;;;;;;5098028;28;20472;-80
2021/07/17 01:24:53;;;;;;;22.03;13.90;;;18.10;99.90;;;;;;5097688;28;20450;-82
2021/07/17 01:27:19;;;;;;;18.90;13.70;;;18.10;99.90;;;;;;5074203;28;20485;-81
2021/07/17 01:29:47;;;;;;;22.90;12.87;;;18.10;99.90;;;;;;5094826;28;20497;-81
2021/07/17 01:32:16;;;;;;;23.60;13.37;;;18.10;99.90;;;;;;5096589;28;20283;-81
2021/07/17 01:34:42;;;;;;;20.10;13.30;;;18.10;99.90;;;;;;5097420;28;20442;-80
2021/07/17 01:37:08;;;;;;;28.03;13.70;;;18.10;99.90;;;;;;5097231;28;20414;-81
2021/07/17 01:39:33;;;;;;;18.00;12.43;;;18.10;99.90;;;;;;5061300;28;20257;-81
2021/07/17 01:41:59;;;;;;;18.63;13.40;;;18.10;99.90;;;;;;5060517;28;20193;-80
2021/07/17 01:44:25;;;;;;;19.57;14.07;;;18.10;99.90;;;;;;5070205;28;20903;-80
2021/07/17 01:46:52;;;;;;;23.60;13.07;;;18.10;99.90;;;;;;5094968;28;20786;-82
2021/07/17 01:49:17;;;;;;;29.27;13.90;;;18.10;99.90;;;;;;5062798;28;20197;-80
2021/07/17 01:51:43;;;;;;;23.70;15.10;;;18.10;99.90;;;;;;5059142;28;20415;-82
2021/07/17 01:54:09;;;;;;;22.83;14.17;;;18.10;99.90;;;;;;5073392;28;20180;-82
2021/07/17 01:56:34;;;;;;;20.13;14.17;;;18.10;99.90;;;;;;5095321;28;20193;-80
2021/07/17 01:59:00;;;;;;;22.00;13.63;;;18.00;99.90;;;;;;5088815;28;20177;-80
2021/07/17 02:01:26;;;;;;;23.97;14.80;;;18.00;99.90;;;;;;5095763;28;20216;-82
2021/07/17 02:03:52;;;;;;;23.73;13.13;;;18.00;99.90;;;;;;5086739;28;20833;-79
2021/07/17 02:06:28;;;;;;;20.17;13.17;;;17.90;99.90;;;;;;5095515;28;20789;-80
2021/07/17 02:08:54;;;;;;;21.87;14.00;;;17.90;99.90;;;;;;5077026;28;20419;-80
2021/07/17 02:11:21;;;;;;;19.53;13.40;;;17.90;99.90;;;;;;5075783;28;20543;-82
2021/07/17 02:13:49;;;;;;;23.70;13.80;;;17.90;99.90;;;;;;5076869;28;20414;-80
2021/07/17 02:16:16;;;;;;;19.00;13.23;;;17.90;99.90;;;;;;5095747;28;20430;-80
2021/07/17 02:18:43;;;;;;;20.53;13.30;;;17.90;99.90;;;;;;5096261;28;20442;-82
2021/07/17 02:21:09;;;;;;;18.87;12.93;;;17.90;99.90;;;;;;5096025;28;20433;-81
2021/07/17 02:23:36;;;;;;;20.53;13.50;;;17.90;99.90;;;;;;5095762;28;20426;-81
2021/07/17 02:26:03;;;;;;;18.80;13.13;;;17.90;99.90;;;;;;5093334;28;20462;-82
2021/07/17 02:28:29;;;;;;;28.60;15.17;;;17.90;99.90;;;;;;5094823;28;20426;-80
2021/07/17 02:30:54;;;;;;;18.90;12.40;;;17.90;99.90;;;;;;5078204;28;20476;-82
2021/07/17 02:33:20;;;;;;;19.90;13.00;;;17.90;99.90;;;;;;5077911;28;20188;-82
2021/07/17 02:35:46;;;;;;;20.80;13.17;;;17.90;99.90;;;;;;5094550;28;20208;-81
2021/07/17 02:38:12;;;;;;;20.37;12.77;;;17.90;99.90;;;;;;5096229;28;20275;-80
2021/07/17 02:40:38;;;;;;;24.37;13.10;;;17.90;99.90;;;;;;5095166;28;20453;-80
2021/07/17 02:43:04;;;;;;;18.87;12.73;;;17.90;99.90;;;;;;5095962;28;20422;-82
2021/07/17 02:45:30;;;;;;;19.23;12.30;;;17.80;99.90;;;;;;5068387;28;20590;-81
2021/07/17 02:47:56;;;;;;;21.20;13.27;;;17.80;99.90;;;;;;5074173;28;20423;-80
2021/07/17 02:50:22;;;;;;;21.53;13.23;;;17.70;99.90;;;;;;5061676;28;20466;-80
2021/07/17 02:52:48;;;;;;;17.03;12.77;;;17.80;99.90;;;;;;5077272;28;20668;-80
2021/07/17 02:55:14;;;;;;;19.07;12.50;;;17.70;99.90;;;;;;5093737;28;20470;-80
2021/07/17 02:57:40;;;;;;;27.10;14.73;;;17.80;99.90;;;;;;5094637;28;20187;-81
2021/07/17 03:00:08;;;;;;;18.60;12.07;;;17.70;99.90;;;;;;5057195;28;20407;-81
2021/07/17 03:02:33;;;;;;;18.93;11.80;;;17.70;99.90;;;;;;5090935;28;20437;-82
2021/07/17 03:04:59;;;;;;;21.33;12.70;;;17.70;99.90;;;;;;5089979;28;21096;-80
2021/07/17 03:07:25;;;;;;;18.17;12.90;;;17.70;99.90;;;;;;5091954;28;20188;-82
2021/07/17 03:09:51;;;;;;;22.23;13.13;;;17.70;99.90;;;;;;5084038;28;20466;-81
2021/07/17 03:12:16;;;;;;;22.73;13.03;;;17.60;99.90;;;;;;5094298;28;20192;-82
2021/07/17 03:14:42;;;;;;;15.57;13.00;;;17.60;99.90;;;;;;5073206;28;20205;-81
2021/07/17 03:17:08;;;;;;;20.67;14.30;;;17.60;99.90;;;;;;5090095;28;20488;-82
2021/07/17 03:19:34;;;;;;;20.90;14.63;;;17.70;99.90;;;;;;5069191;28;20192;-81
2021/07/17 03:22:00;;;;;;;25.50;14.80;;;17.70;99.90;;;;;;5072924;28;20426;-81
2021/07/17 03:24:25;;;;;;;23.50;14.33;;;17.70;99.90;;;;;;5094251;28;20208;-81
2021/07/17 03:26:51;;;;;;;22.57;15.40;;;17.60;99.90;;;;;;5075188;28;20470;-79
2021/07/17 03:29:17;;;;;;;22.70;13.07;;;17.60;99.90;;;;;;5064200;28;20926;-80
2021/07/17 03:31:43;;;;;;;19.33;14.83;;;17.60;99.90;;;;;;5047590;28;20278;-82
2021/07/17 03:34:09;;;;;;;22.83;13.00;;;17.60;99.90;;;;;;5094279;28;20192;-81
2021/07/17 03:36:35;;;;;;;21.70;14.00;;;17.60;99.90;;;;;;5077931;28;20550;-81
2021/07/17 03:39:00;;;;;;;24.30;14.50;;;17.50;99.90;;;;;;5094591;28;20188;-81
2021/07/17 03:41:26;;;;;;;18.50;13.00;;;17.50;99.90;;;;;;5076995;28;20206;-82
2021/07/17 03:43:52;;;;;;;19.43;12.33;;;17.50;99.90;;;;;;5089177;28;20301;-82
2021/07/17 03:46:17;;;;;;;19.03;12.27;;;17.50;99.90;;;;;;5094188;28;20395;-82
2021/07/17 03:48:43;;;;;;;18.87;13.13;;;17.50;99.90;;;;;;5090837;28;20196;-81
2021/07/17 03:51:09;;;;;;;16.17;12.17;;;17.50;99.90;;;;;;5097960;28;20222;-80
2021/07/17 03:53:35;;;;;;;16.30;11.90;;;17.50;99.90;;;;;;5099749;28;20188;-81
2021/07/17 03:56:00;;;;;;;21.83;12.30;;;17.60;99.90;;;;;;5063271;28;20242;-80
2021/07/17 03:58:26;;;;;;;17.80;12.27;;;17.60;99.90;;;;;;5081724;28;20188;-82
2021/07/17 04:00:52;;;;;;;17.60;11.53;;;17.60;99.90;;;;;;5058476;28;20193;-81
2021/07/17 04:03:17;;;;;;;20.90;12.17;;;17.60;99.90;;;;;;5081682;28;20722;-80
2021/07/17 04:05:43;;;;;;;20.80;13.03;;;17.60;99.90;;;;;;5064510;28;20290;-79
2021/07/17 04:08:09;;;;;;;26.30;11.80;;;17.60;99.90;;;;;;5081703;28;20205;-81
2021/07/17 04:10:35;;;;;;;17.53;11.60;;;17.60;99.90;;;;;;5078991;28;20465;-80
2021/07/17 04:13:04;;;;;;;22.33;12.10;;;17.60;99.90;;;;;;5075945;28;20189;-81
2021/07/17 04:15:30;;;;;;;21.37;12.57;;;17.60;99.90;;;;;;5072041;28;20907;-82
2021/07/17 04:17:56;;;;;;;20.90;12.60;;;17.60;99.90;;;;;;5097904;28;20418;-81
2021/07/17 04:20:21;;;;;;;18.70;10.27;;;17.60;99.90;;;;;;5077164;28;20191;-80
2021/07/17 04:22:47;;;;;;;19.03;12.67;;;17.60;99.90;;;;;;5080218;28;20257;-81
2021/07/17 04:25:13;;;;;;;17.77;11.87;;;17.60;99.90;;;;;;5081132;28;20214;-81
2021/07/17 04:27:39;;;;;;;20.30;11.50;;;17.60;99.90;;;;;;5077017;28;20272;-81
2021/07/17 04:30:07;;;;;;;18.73;12.77;;;17.60;99.90;;;;;;5080580;28;20215;-81
2021/07/17 04:32:33;;;;;;;18.20;11.13;;;17.60;99.90;;;;;;5099332;28;20976;-81
2021/07/17 04:34:58;;;;;;;17.90;12.77;;;17.60;99.90;;;;;;5080558;28;20524;-81
2021/07/17 04:37:24;;;;;;;16.33;11.33;;;17.70;99.90;;;;;;5043761;28;20307;-80
2021/07/17 04:39:51;;;;;;;24.47;13.10;;;17.60;99.90;;;;;;5093438;28;20717;-79
2021/07/17 04:42:17;;;;;;;18.97;13.83;;;17.70;99.90;;;;;;5080909;28;20192;-81
2021/07/17 04:44:43;;;;;;;18.47;14.27;;;17.70;99.90;;;;;;5067587;28;20550;-80
2021/07/17 04:47:08;;;;;;;23.20;14.20;;;17.60;99.90;;;;;;5047466;28;20188;-80
2021/07/17 04:49:34;;;;;;;27.40;14.90;;;17.60;99.90;;;;;;5097285;28;20494;-81
2021/07/17 04:52:00;;;;;;;21.43;13.87;;;17.60;99.90;;;;;;5081435;28;20180;-81
2021/07/17 04:54:25;;;;;;;24.53;14.20;;;17.60;99.90;;;;;;5097268;28;20305;-81
2021/07/17 04:56:51;;;;;;;21.87;15.23;;;17.70;99.90;;;;;;5079412;28;20275;-78
2021/07/17 04:59:17;;;;;;;23.07;14.60;;;17.60;99.90;;;;;;5084518;28;20201;-81
2021/07/17 05:01:43;;;;;;;26.60;16.17;;;17.60;99.90;;;;;;5081216;28;20422;-82
2021/07/17 05:04:10;;;;;;;23.30;15.30;;;17.70;99.90;;;;;;5096705;28;20310;-81
2021/07/17 05:06:36;;;;;;;22.03;14.70;;;17.70;99.90;;;;;;5079692;28;20211;-79
2021/07/17 05:09:02;;;;;;;18.00;14.87;;;17.70;99.90;;;;;;5095722;28;20492;-81
2021/07/17 05:11:28;;;;;;;23.93;14.67;;;17.70;99.90;;;;;;5079921;28;20215;-80
2021/07/17 05:13:54;;;;;;;23.50;15.17;;;17.60;99.90;;;;;;5079403;28;20422;-82
2021/07/17 05:16:19;;;;;;;27.67;14.90;;;17.60;99.90;;;;;;5091919;28;20705;-80
2021/07/17 05:18:45;;;;;;;24.03;15.33;;;17.60;99.90;;;;;;5080484;28;20204;-80
2021/07/17 05:21:11;;;;;;;22.63;15.30;;;17.70;99.90;;;;;;5063455;28;20257;-79
2021/07/17 05:23:36;;;;;;;23.20;14.60;;;17.60;99.90;;;;;;5080023;28;20188;-78
2021/07/17 05:26:02;;;;;;;20.30;14.37;;;17.60;99.90;;;;;;5059938;28;20223;-80
2021/07/17 05:28:28;;;;;;;24.87;15.50;;;17.70;99.90;;;;;;5078058;28;20719;-81
2021/07/17 05:30:53;;;;;;;23.70;14.57;;;17.70;99.90;;;;;;5096050;28;20208;-80
2021/07/17 05:33:19;;;;;;;21.00;13.57;;;17.70;99.90;;;;;;5061911;28;20180;-82
2021/07/17 05:35:45;;;;;;;24.60;14.10;;;17.70;99.90;;;;;;5097629;28;20208;-80
2021/07/17 05:38:10;;;;;;;19.87;13.30;;;17.70;99.90;;;;;;5062181;28;20185;-81
2021/07/17 05:40:36;;;;;;;21.17;13.90;;;17.70;99.90;;;;;;5079532;28;20192;-82
2021/07/17 05:43:02;;;;;;;20.67;14.27;;;17.70;99.90;;;;;;5062056;28;20192;-80
2021/07/17 05:45:28;;;;;;;18.93;13.80;;;17.80;99.90;;;;;;5088238;28;20192;-80
2021/07/17 05:47:54;;;;;;;17.27;12.47;;;17.70;99.90;;;;;;5072554;28;20431;-81
2021/07/17 05:50:20;;;;;;;18.67;12.73;;;17.80;99.90;;;;;;5076721;28;20669;-81
2021/07/17 05:52:47;;;;;;;19.97;12.00;;;17.80;99.90;;;;;;5095944;28;20183;-80
2021/07/17 05:55:13;;;;;;;20.40;13.20;;;17.80;99.90;;;;;;5094563;28;20446;-80
2021/07/17 05:57:39;;;;;;;18.30;12.37;;;17.80;99.90;;;;;;5059744;28;20438;-81
2021/07/17 06:00:09;;;;;;;23.00;12.87;;;17.80;99.90;;;;;;5076279;28;20521;-79
2021/07/17 06:02:35;;;;;;;18.10;13.03;;;17.90;99.90;;;;;;5095793;28;20426;-81
2021/07/17 06:05:00;;;;;;;20.50;12.07;;;17.90;99.90;;;;;;5079419;28;20510;-82
2021/07/17 06:07:26;;;;;;;19.30;12.23;;;17.90;99.90;;;;;;5061348;28;20573;-79
2021/07/17 06:09:52;;;;;;;17.23;11.10;;;17.90;99.90;;;;;;5075566;28;21055;-80
2021/07/17 06:12:18;;;;;;;18.30;12.40;;;17.90;99.90;;;;;;5091948;28;20686;-79
2021/07/17 06:14:43;;;;;;;20.40;12.87;;;17.90;99.90;;;;;;5083914;28;20201;-82
2021/07/17 06:17:11;;;;;;;22.70;11.90;;;17.90;99.90;;;;;;5089655;28;20218;-82
2021/07/17 06:19:41;;;;;;;18.93;12.70;;;17.90;99.90;;;;;;5059156;28;20541;-80
2021/07/17 06:22:07;;;;;;;18.03;12.00;;;17.90;99.90;;;;;;5095048;28;20892;-82
2021/07/17 06:24:33;;;;;;;16.60;11.90;;;17.90;99.90;;;;;;5075201;28;20450;-82
2021/07/17 06:26:58;;;;;;;18.60;13.63;;;17.90;99.90;;;;;;5092312;28;20434;-80
2021/07/17 06:29:24;;;;;;;18.80;13.07;;;17.90;99.90;;;;;;5070705;28;20277;-82
2021/07/17 06:31:50;;;;;;;24.20;13.23;;;17.80;99.90;;;;;;5071517;28;20605;-81
2021/07/17 06:34:16;;;;;;;23.40;12.40;;;17.80;99.90;;;;;;5074833;28;20485;-80
2021/07/17 06:36:41;;;;;;;21.20;12.93;;;17.80;99.90;;;;;;5056747;28;20189;-79
2021/07/17 06:39:07;;;;;;;18.77;11.90;;;17.80;99.90;;;;;;5062245;28;20280;-80
2021/07/17 06:41:33;;;;;;;18.40;12.77;;;17.80;99.90;;;;;;5083303;28;20187;-80
2021/07/17 06:43:58;;;;;;;24.60;13.20;;;17.90;99.90;;;;;;5073867;28;20181;-81
2021/07/17 06:46:24;;;;;;;23.40;12.47;;;17.90;99.90;;;;;;5066918;28;20196;-81
2021/07/17 06:48:50;;;;;;;18.77;12.97;;;17.90;99.90;;;;;;5076028;28;20196;-80
2021/07/17 06:51:16;;;;;;;23.80;13.93;;;17.90;99.90;;;;;;5060719;28;20420;-81
2021/07/17 06:53:41;;;;;;;35.00;14.20;;;18.00;99.90;;;;;;5084832;28;20442;-82
2021/07/17 06:56:07;;;;;;;19.23;12.60;;;18.00;99.90;;;;;;5067940;28;20693;-82
2021/07/17 06:58:33;;;;;;;21.67;13.67;;;18.00;99.90;;;;;;5048893;28;20193;-82
2021/07/17 07:00:59;;;;;;;23.60;13.20;;;18.00;99.90;;;;;;5059545;28;20723;-80
2021/07/17 07:03:24;;;;;;;15.20;12.63;;;18.10;99.90;;;;;;5093391;28;20781;-80
2021/07/17 07:05:50;;;;;;;18.33;11.40;;;18.10;99.90;;;;;;5058883;28;20466;-80
2021/07/17 07:08:16;;;;;;;17.70;11.80;;;18.10;99.90;;;;;;5078029;28;20192;-81
2021/07/17 07:10:42;;;;;;;21.30;12.87;;;18.00;99.90;;;;;;5094651;28;20488;-80
2021/07/17 07:13:12;;;;;;;18.17;11.43;;;18.10;99.90;;;;;;5070156;28;20545;-79
2021/07/17 07:15:38;;;;;;;18.37;11.80;;;18.00;99.90;;;;;;5072556;28;20201;-81
2021/07/17 07:18:04;;;;;;;21.37;12.23;;;18.00;99.90;;;;;;5055953;28;20525;-80
2021/07/17 07:20:30;;;;;;;19.73;13.83;;;18.10;99.90;;;;;;5075112;28;20185;-80
2021/07/17 07:22:56;;;;;;;18.70;12.00;;;18.10;99.90;;;;;;5075223;28;20403;-80
2021/07/17 07:25:22;;;;;;;25.03;13.63;;;18.10;99.90;;;;;;5076847;28;20550;-81
2021/07/17 07:27:48;;;;;;;20.53;12.53;;;18.20;99.90;;;;;;5061246;28;20191;-81
2021/07/17 07:30:15;;;;;;;26.30;12.63;;;18.20;99.90;;;;;;5065045;28;20197;-82
2021/07/17 07:32:41;;;;;;;16.13;10.63;;;18.20;99.90;;;;;;5054101;28;21010;-80
2021/07/17 07:35:07;;;;;;;21.47;11.97;;;18.20;99.90;;;;;;5095425;28;20454;-81
2021/07/17 07:37:33;;;;;;;18.77;12.30;;;18.30;99.90;;;;;;5078310;28;20228;-81
2021/07/17 07:39:59;;;;;;;20.80;11.33;;;18.30;99.90;;;;;;5073565;28;20451;-82
2021/07/17 07:42:26;;;;;;;22.53;11.80;;;18.40;99.90;;;;;;5084843;28;20233;-81
2021/07/17 07:44:51;;;;;;;17.13;12.70;;;18.40;99.90;;;;;;5071115;28;20911;-81
2021/07/17 07:47:18;;;;;;;18.27;11.63;;;18.40;99.90;;;;;;5074724;28;20493;-82
2021/07/17 07:49:44;;;;;;;21.50;12.17;;;18.40;99.90;;;;;;5075519;28;20632;-80
2021/07/17 07:52:10;;;;;;;23.90;13.07;;;18.30;99.90;;;;;;5077159;28;20424;-81
2021/07/17 07:54:36;;;;;;;18.33;12.53;;;18.30;99.90;;;;;;5074648;28;20571;-80
2021/07/17 07:57:02;;;;;;;20.97;11.83;;;18.30;99.90;;;;;;5077603;28;20254;-82
2021/07/17 07:59:28;;;;;;;20.70;12.50;;;18.40;99.90;;;;;;5074845;28;20961;-80
2021/07/17 08:01:54;;;;;;;23.90;13.10;;;18.40;99.90;;;;;;5077212;28;20422;-80
2021/07/17 08:04:19;;;;;;;18.17;11.93;;;18.40;99.90;;;;;;5073886;28;20273;-81
2021/07/17 08:06:45;;;;;;;21.40;12.90;;;18.40;99.90;;;;;;5084391;28;20184;-79
2021/07/17 08:09:10;;;;;;;25.00;13.47;;;18.40;99.90;;;;;;5073670;28;20186;-80
2021/07/17 08:11:36;;;;;;;19.77;11.60;;;18.40;99.90;;;;;;5077287;28;20198;-82
2021/07/17 08:14:02;;;;;;;18.70;11.43;;;18.50;99.90;;;;;;5093535;28;20266;-82
2021/07/17 08:16:28;;;;;;;15.23;11.20;;;18.50;99.90;;;;;;5094855;28;20177;-79
2021/07/17 08:18:53;;;;;;;23.20;11.87;;;18.50;99.90;;;;;;5096377;28;20748;-80
2021/07/17 08:21:19;;;;;;;16.33;12.20;;;18.60;99.90;;;;;;5078273;28;20189;-80
2021/07/17 08:23:45;;;;;;;21.50;12.37;;;18.60;99.90;;;;;;5075303;28;20213;-82
2021/07/17 08:26:12;;;;;;;20.87;11.87;;;18.60;99.90;;;;;;5079272;28;20799;-79
2021/07/17 08:28:37;;;;;;;16.90;11.23;;;18.60;99.90;;;;;;5087420;28;20434;-80
2021/07/17 08:31:03;;;;;;;18.13;11.03;;;18.60;99.90;;;;;;5051229;28;21003;-81
2021/07/17 08:33:29;;;;;;;18.43;11.97;;;18.70;99.90;;;;;;5076665;28;20861;-82
2021/07/17 08:35:54;;;;;;;23.60;11.73;;;18.70;99.90;;;;;;5099774;28;20222;-81
2021/07/17 08:38:20;;;;;;;15.17;11.87;;;18.70;99.90;;;;;;5099729;28;20211;-79
2021/07/17 08:40:57;;;;;;;21.57;11.47;;;18.70;99.90;;;;;;5082520;28;20192;-80
2021/07/17 08:43:23;;;;;;;17.20;11.07;;;18.80;99.90;;;;;;5099834;28;20192;-82
2021/07/17 08:45:50;;;;;;;14.07;11.53;;;18.90;99.90;;;;;;5064585;28;20537;-82
2021/07/17 08:48:18;;;;;;;16.17;10.67;;;18.90;99.90;;;;;;5074374;28;20419;-82
2021/07/17 08:50:44;;;;;;;13.37;10.07;;;19.10;99.90;;;;;;5080943;28;20446;-80
2021/07/17 08:53:11;;;;;;;15.87;10.30;;;19.10;99.90;;;;;;5064479;28;20446;-80
2021/07/17 08:55:37;;;;;;;17.67;11.23;;;19.30;99.90;;;;;;5077631;28;20463;-82
2021/07/17 08:58:03;;;;;;;15.40;10.03;;;19.30;99.90;;;;;;5096011;28;20439;-80
2021/07/17 09:00:35;;;;;;;16.20;10.60;;;19.40;99.90;;;;;;5080399;28;20458;-82
2021/07/17 09:03:08;;;;;;;15.13;11.57;;;19.50;99.90;;;;;;5065566;28;20723;-81
2021/07/17 09:05:42;;;;;;;19.40;11.17;;;19.60;99.90;;;;;;5050161;28;20423;-83
2021/07/17 09:08:12;;;;;;;16.27;11.40;;;19.70;99.90;;;;;;5083810;28;20513;-81
2021/07/17 09:10:40;;;;;;;17.67;11.37;;;19.80;99.90;;;;;;5080765;28;20587;-81
2021/07/17 09:13:08;;;;;;;15.77;9.93;;;19.90;99.90;;;;;;5097845;28;20438;-82
2021/07/17 09:15:35;;;;;;;15.00;9.13;;;20.00;99.90;;;;;;5060549;28;21036;-82
2021/07/17 09:18:01;;;;;;;14.73;9.80;;;20.20;99.90;;;;;;5097459;28;20426;-81
2021/07/17 09:20:27;;;;;;;16.80;10.70;;;20.20;99.90;;;;;;5098730;28;20427;-79
2021/07/17 09:22:58;;;;;;;14.40;10.20;;;20.30;99.90;;;;;;5098095;28;20419;-81
2021/07/17 09:25:38;;;;;;;13.57;9.20;;;20.40;99.90;;;;;;5098716;28;20461;-82
2021/07/17 09:28:15;;;;;;;14.47;9.23;;;20.40;99.90;;;;;;5097588;28;20418;-82
2021/07/17 09:30:41;;;;;;;17.10;9.23;;;20.40;99.90;;;;;;5091412;28;20441;-80
2021/07/17 09:33:07;;;;;;;13.77;10.20;;;20.40;99.90;;;;;;5080385;28;20549;-81
2021/07/17 09:35:35;;;;;;;13.43;9.00;;;20.50;99.90;;;;;;5096579;28;20446;-80
2021/07/17 09:38:02;;;;;;;16.20;9.67;;;20.70;99.90;;;;;;5060499;28;20561;-82
2021/07/17 09:41:07;;;;;;;13.97;9.73;;;20.90;99.90;;;;;;5076465;28;20427;-82
2021/07/17 09:43:38;;;;;;;13.10;8.53;;;21.10;99.90;;;;;;5075125;28;20595;-81
2021/07/17 09:46:21;;;;;;;16.83;9.20;;;21.50;99.90;;;;;;5073945;28;20430;-80
2021/07/17 09:48:52;;;;;;;12.50;8.33;;;21.70;99.90;;;;;;5064387;28;20422;-83
2021/07/17 09:51:30;;;;;;;12.70;8.27;;;22.00;99.90;;;;;;5064926;28;20748;-81
2021/07/17 09:54:01;;;;;;;15.80;8.80;;;22.20;99.90;;;;;;5091336;28;20413;-81
2021/07/17 09:56:30;;;;;;;14.87;7.97;;;22.30;99.90;;;;;;5063966;28;20895;-81
2021/07/17 09:58:58;;;;;;;11.70;8.60;;;22.40;99.90;;;;;;5079560;28;20491;-82
2021/07/17 10:01:25;;;;;;;14.17;9.07;;;22.50;99.90;;;;;;5079532;28;20494;-82
2021/07/17 10:04:12;;;;;;;11.00;7.70;;;22.60;99.90;;;;;;5093320;28;21088;-81
2021/07/17 10:06:44;;;;;;;12.40;8.00;;;22.70;99.90;;;;;;5085380;28;20438;-81
2021/07/17 10:09:14;;;;;;;11.63;7.80;;;22.80;99.90;;;;;;5096479;28;20418;-82
2021/07/17 10:11:51;;;;;;;10.20;7.33;;;22.90;99.90;;;;;;5078742;28;20462;-81
2021/07/17 10:14:25;;;;;;;11.73;8.37;;;23.10;99.90;;;;;;5094523;28;20450;-82
2021/07/17 10:16:56;;;;;;;15.10;8.77;;;23.20;99.90;;;;;;5067944;28;20424;-82
2021/07/17 10:19:27;;;;;;;10.83;8.27;;;23.30;99.90;;;;;;5075966;28;20425;-80
2021/07/17 10:21:54;;;;;;;12.53;8.20;;;23.40;99.90;;;;;;5083085;28;20459;-82
2021/07/17 10:24:21;;;;;;;11.60;7.77;;;23.50;99.90;;;;;;5079569;28;20446;-81
2021/07/17 10:26:49;;;;;;;9.60;7.27;;;23.60;99.90;;;;;;5066374;28;20459;-80
2021/07/17 10:29:16;;;;;;;11.33;7.90;;;23.70;99.90;;;;;;5093692;28;20518;-82
2021/07/17 10:31:43;;;;;;;10.83;7.23;;;23.70;99.90;;;;;;5090418;28;20454;-80
2021/07/17 10:34:09;;;;;;;16.97;7.50;;;23.80;99.90;;;;;;5088112;28;20450;-81
2021/07/17 10:37:11;;;;;;;10.93;8.00;;;23.90;99.90;;;;;;5078048;28;20415;-82
2021/07/17 10:39:42;;;;;;;12.73;7.20;;;24.00;99.90;;;;;;5078972;28;20422;-81
2021/07/17 10:42:26;;;;;;;12.37;6.47;;;24.10;99.90;;;;;;5045804;28;20433;-82
2021/07/17 10:44:54;;;;;;;8.53;6.50;;;24.30;99.90;;;;;;5091303;28;20450;-81
2021/07/17 10:47:20;;;;;;;5.43;4.57;;;24.40;99.90;;;;;;5070212;28;20465;-81
2021/07/17 10:49:49;;;;;;;9.03;4.60;;;24.50;99.90;;;;;;5094447;28;20457;-81
2021/07/17 10:52:14;;;;;;;8.10;4.87;;;24.60;99.90;;;;;;5077967;28;20509;-82
2021/07/17 10:54:41;;;;;;;7.17;4.03;;;24.70;99.90;;;;;;5094755;28;20462;-81
2021/07/17 10:57:07;;;;;;;8.90;4.50;;;24.70;99.90;;;;;;5094789;28;20180;-81
2021/07/17 10:59:33;;;;;;;7.87;4.63;;;24.80;99.90;;;;;;5094158;28;20435;-82
2021/07/17 11:02:00;;;;;;;10.43;4.90;;;24.80;99.90;;;;;;5094065;28;20485;-82
2021/07/17 11:04:31;;;;;;;8.10;4.70;;;24.90;99.90;;;;;;5081200;28;20294;-82
2021/07/17 11:07:16;;;;;;;10.70;4.40;;;25.00;99.90;;;;;;5095634;28;20429;-80
2021/07/17 11:09:49;;;;;;;7.40;5.13;;;25.00;99.90;;;;;;5096060;28;20442;-80
2021/07/17 11:12:22;;;;;;;6.77;4.10;;;25.10;99.90;;;;;;5079349;28;20418;-82
2021/07/17 11:14:48;;;;;;;7.73;5.23;;;25.20;99.90;;;;;;5060219;28;20928;-81
2021/07/17 11:17:59;;;;;;;7.17;4.00;;;25.20;99.90;;;;;;5075927;28;20439;-81
2021/07/17 11:20:39;;;;;;;8.03;3.53;;;25.30;99.90;;;;;;5086986;28;20473;-82
2021/07/17 11:23:08;;;;;;;3.83;3.07;;;25.30;99.90;;;;;;5079239;28;20418;-81
2021/07/17 11:25:34;;;;;;;6.27;3.73;;;25.30;99.90;;;;;;5096565;28;20439;-81
2021/07/17 11:28:01;;;;;;;4.10;3.53;;;25.30;99.90;;;;;;5097339;28;20425;-83
2021/07/17 11:30:32;;;;;;;4.40;3.70;;;25.40;99.90;;;;;;5086913;28;20467;-81
2021/07/17 11:33:04;;;;;;;4.87;3.73;;;25.40;99.90;;;;;;5083873;28;20508;-82
2021/07/17 11:35:34;;;;;;;4.23;3.50;;;25.50;99.90;;;;;;5095867;28;20438;-81
2021/07/17 11:38:00;;;;;;;8.17;4.20;;;25.50;99.90;;;;;;5095664;28;20409;-83
2021/07/17 11:40:26;;;;;;;6.93;3.90;;;25.60;99.90;;;;;;5059519;28;20783;-81
2021/07/17 11:42:52;;;;;;;5.17;3.63;;;25.70;99.90;;;;;;5072003;28;20430;-81
2021/07/17 11:45:17;;;;;;;6.60;3.50;;;25.80;99.90;;;;;;5094860;28;20204;-83
2021/07/17 11:47:44;;;;;;;6.40;3.63;;;25.80;99.90;;;;;;5092566;28;20422;-82
2021/07/17 11:50:10;;;;;;;5.70;3.47;;;25.90;99.90;;;;;;5048837;28;20270;-81
2021/07/17 11:52:37;;;;;;;5.43;3.13;;;25.90;99.90;;;;;;5055538;28;20503;-83
2021/07/17 11:55:11;;;;;;;5.03;2.97;;;25.90;99.90;;;;;;5096089;28;20945;-83
2021/07/17 11:57:48;;;;;;;7.70;3.67;;;26.00;99.90;;;;;;5082271;28;20511;-82
2021/07/17 12:00:17;;;;;;;4.27;3.10;;;26.00;99.90;;;;;;5079818;28;20445;-81
2021/07/17 12:02:44;;;;;;;8.53;3.40;;;26.00;99.90;;;;;;5096434;28;20421;-80
2021/07/17 12:05:14;;;;;;;5.63;3.47;;;26.00;99.90;;;;;;5068243;28;20455;-81
2021/07/17 12:07:41;;;;;;;4.57;3.00;;;26.10;99.90;;;;;;5077405;28;20427;-83
2021/07/17 12:10:15;;;;;;;4.23;2.80;;;26.20;99.90;;;;;;5101226;28;21111;-82
2021/07/17 12:12:44;;;;;;;6.37;2.57;;;26.20;99.90;;;;;;5079568;28;20426;-81
2021/07/17 12:15:18;;;;;;;7.90;3.23;;;26.20;99.90;;;;;;5067993;28;20956;-83
2021/07/17 12:17:47;;;;;;;4.30;2.97;;;26.20;99.90;;;;;;5099095;28;20425;-81
2021/07/17 12:20:31;;;;;;;3.80;2.70;;;26.20;99.90;;;;;;5094187;28;20414;-81
2021/07/17 12:23:09;;;;;;;3.50;3.13;;;26.30;99.90;;;;;;5082268;28;20426;-82
2021/07/17 12:25:37;;;;;;;5.70;3.20;;;26.30;99.90;;;;;;5083118;28;20481;-80
2021/07/17 12:28:13;;;;;;;6.77;2.70;;;26.40;99.90;;;;;;5099422;28;20422;-82
2021/07/17 12:30:38;;;;;;;3.93;2.90;;;26.40;99.90;;;;;;5092412;28;20495;-81
2021/07/17 12:33:16;;;;;;;3.90;2.67;;;26.30;99.90;;;;;;5097444;28;21080;-81